Time;durP1;ratioP1;P1;durP2;ratioP2;P2;SDS_P1;SDS_P2;PMS_P1;PMS_P2;Temp;Humidity;BMP_temperature;BMP_pressure;BME280_temperature;BME280_humidity;BME280_pressure;Samples;Min_cycle;Max_cycle;Signal;HPM_P1;HPM_P2
2023/03/06 00:02:03;;;;;;;22.77;9.93;;;3.00;99.90;;;;;;4962170;28;20196;-84
2023/03/06 00:04:28;;;;;;;19.43;9.00;;;2.90;99.90;;;;;;4960983;29;20180;-83
2023/03/06 00:06:54;;;;;;;18.87;9.13;;;3.00;99.90;;;;;;4935399;29;20588;-85
2023/03/06 00:09:19;;;;;;;17.77;9.37;;;3.00;99.90;;;;;;4952323;29;20205;-83
2023/03/06 00:11:45;;;;;;;16.30;8.70;;;3.00;99.90;;;;;;4960311;28;20173;-83
2023/03/06 00:14:10;;;;;;;23.40;10.00;;;3.10;99.90;;;;;;4961547;28;20193;-84
2023/03/06 00:16:36;;;;;;;15.90;9.63;;;3.00;99.90;;;;;;4961146;29;20172;-84
2023/03/06 00:19:01;;;;;;;16.73;9.07;;;3.10;99.90;;;;;;4944325;29;20215;-83
2023/03/06 00:21:27;;;;;;;16.73;9.33;;;3.00;99.90;;;;;;4960859;29;20219;-83
2023/03/06 00:23:52;;;;;;;21.83;8.77;;;3.00;99.90;;;;;;4955890;29;20205;-84
2023/03/06 00:26:18;;;;;;;19.43;9.90;;;3.10;99.90;;;;;;4955726;29;20175;-85
2023/03/06 00:28:44;;;;;;;18.67;9.20;;;3.00;99.90;;;;;;4948548;29;20243;-84
2023/03/06 00:31:10;;;;;;;15.18;8.90;;;3.10;99.90;;;;;;4962453;29;20653;-84
2023/03/06 00:33:35;;;;;;;21.20;9.97;;;3.10;99.90;;;;;;4960719;29;20183;-84
2023/03/06 00:36:04;;;;;;;22.77;10.60;;;3.00;99.90;;;;;;4962180;29;20180;-83
2023/03/06 00:38:32;;;;;;;25.13;11.70;;;3.00;99.90;;;;;;4962135;29;20191;-83
2023/03/06 00:40:57;;;;;;;17.58;8.57;;;3.00;99.90;;;;;;4958135;29;20188;-84
2023/03/06 00:43:23;;;;;;;16.10;7.10;;;3.00;99.90;;;;;;4958970;29;20165;-85
2023/03/06 00:45:48;;;;;;;17.07;9.57;;;3.00;99.90;;;;;;4955287;29;20177;-83
2023/03/06 00:48:14;;;;;;;17.10;9.87;;;2.90;99.90;;;;;;4949540;29;20208;-84
2023/03/06 00:50:39;;;;;;;18.57;9.80;;;2.90;99.90;;;;;;4942898;29;20617;-83
2023/03/06 00:53:05;;;;;;;15.83;9.53;;;2.90;99.90;;;;;;4944025;29;20179;-83
2023/03/06 00:55:32;;;;;;;17.13;8.50;;;2.80;99.90;;;;;;4961560;29;20204;-83
2023/03/06 00:57:57;;;;;;;15.48;9.07;;;2.80;99.90;;;;;;4943840;29;20212;-84
2023/03/06 01:00:23;;;;;;;19.13;10.03;;;2.70;99.90;;;;;;4962327;29;20187;-83
2023/03/06 01:02:49;;;;;;;16.92;9.77;;;2.70;99.90;;;;;;4963856;29;20227;-83
2023/03/06 01:05:15;;;;;;;14.37;8.90;;;3.20;99.90;;;;;;4951461;28;20203;-83
2023/03/06 01:07:40;;;;;;;16.73;8.40;;;2.70;99.90;;;;;;4956341;29;20220;-84
2023/03/06 01:10:06;;;;;;;19.43;8.23;;;2.70;99.90;;;;;;4943958;29;20208;-83
2023/03/06 01:12:32;;;;;;;15.05;8.38;;;2.70;99.90;;;;;;4949223;29;20203;-83
2023/03/06 01:14:58;;;;;;;12.30;8.13;;;;;;;;;;4962283;29;20645;-83
2023/03/06 01:17:24;;;;;;;22.13;10.10;;;2.70;99.90;;;;;;4961514;29;20183;-83
2023/03/06 01:19:50;;;;;;;16.03;8.53;;;2.70;99.90;;;;;;4955484;29;20443;-85
2023/03/06 01:22:16;;;;;;;17.35;8.18;;;2.70;99.90;;;;;;4953505;29;20205;-83
2023/03/06 01:24:41;;;;;;;16.87;7.93;;;2.70;99.90;;;;;;4959981;29;20297;-83
2023/03/06 01:27:07;;;;;;;15.37;7.97;;;2.70;99.90;;;;;;4944124;29;20220;-82
2023/03/06 01:29:32;;;;;;;14.43;8.07;;;2.70;99.90;;;;;;4961566;29;20251;-83
2023/03/06 01:31:58;;;;;;;16.23;9.37;;;2.70;99.90;;;;;;4960903;29;20204;-83
2023/03/06 01:34:23;;;;;;;13.60;7.90;;;2.70;99.90;;;;;;4958433;28;20213;-83
2023/03/06 01:36:49;;;;;;;36.23;18.83;;;3.10;99.90;;;;;;4958074;28;20220;-83
2023/03/06 01:39:15;;;;;;;18.87;12.83;;;2.70;99.90;;;;;;4947191;28;20207;-83
2023/03/06 01:41:40;;;;;;;17.63;9.30;;;2.70;99.90;;;;;;4942300;29;20211;-84
2023/03/06 01:44:05;;;;;;;14.30;8.43;;;3.50;99.90;;;;;;4944745;29;20177;-83
2023/03/06 01:46:40;;;;;;;24.40;9.40;;;3.10;99.90;;;;;;4959881;29;20188;-83
2023/03/06 01:49:11;;;;;;;16.50;8.07;;;2.70;99.90;;;;;;4952799;29;20799;-84
2023/03/06 01:51:42;;;;;;;16.00;8.25;;;2.70;99.90;;;;;;4953736;28;20885;-84
2023/03/06 01:54:16;;;;;;;14.00;7.65;;;2.70;99.90;;;;;;4941828;29;20177;-85
2023/03/06 01:56:45;;;;;;;22.40;8.70;;;2.70;99.90;;;;;;4941336;29;20179;-84
2023/03/06 01:59:11;;;;;;;22.77;7.80;;;2.70;99.90;;;;;;4952543;28;20677;-83
2023/03/06 02:01:38;;;;;;;15.38;7.88;;;2.70;99.90;;;;;;4955610;29;20751;-84
2023/03/06 02:04:05;;;;;;;18.05;9.45;;;2.70;99.90;;;;;;4954236;29;20181;-85
2023/03/06 02:06:34;;;;;;;14.98;8.05;;;2.80;99.90;;;;;;4952174;28;20181;-84
2023/03/06 02:09:02;;;;;;;12.40;7.18;;;2.70;99.90;;;;;;4955803;28;20210;-84
2023/03/06 02:11:27;;;;;;;12.60;8.05;;;2.70;99.90;;;;;;4955054;28;20203;-84
2023/03/06 02:13:53;;;;;;;18.60;7.40;;;2.70;99.90;;;;;;4951275;28;20184;-83
2023/03/06 02:16:25;;;;;;;14.20;7.20;;;2.70;99.90;;;;;;4960943;29;20191;-83
2023/03/06 02:18:51;;;;;;;15.48;7.68;;;2.80;99.90;;;;;;4941850;29;20227;-84
2023/03/06 02:21:25;;;;;;;17.58;8.50;;;2.80;99.90;;;;;;4942272;29;20318;-84
2023/03/06 02:24:28;;;;;;;16.33;7.63;;;2.80;99.90;;;;;;4955551;28;20189;-84
2023/03/06 02:26:55;;;;;;;15.57;9.05;;;2.70;99.90;;;;;;4956788;28;20672;-83
2023/03/06 02:29:24;;;;;;;18.15;8.63;;;2.70;99.90;;;;;;4941171;29;20200;-84
2023/03/06 02:31:50;;;;;;;21.33;8.98;;;2.70;99.90;;;;;;4952989;29;20217;-83
2023/03/06 02:34:15;;;;;;;16.53;8.60;;;2.70;99.90;;;;;;4952105;28;20193;-84
2023/03/06 02:36:58;;;;;;;16.07;7.87;;;2.70;99.90;;;;;;4953333;28;20165;-83
2023/03/06 02:39:27;;;;;;;19.13;8.32;;;2.70;99.90;;;;;;4942232;29;20236;-83
2023/03/06 02:41:52;;;;;;;17.45;8.40;;;2.70;99.90;;;;;;4946187;29;20625;-83
2023/03/06 02:44:18;;;;;;;17.93;9.80;;;2.70;99.90;;;;;;4941982;29;20241;-83
2023/03/06 02:46:43;;;;;;;16.73;8.27;;;2.70;99.90;;;;;;4958963;29;20192;-83
2023/03/06 02:49:09;;;;;;;16.80;8.80;;;2.60;99.90;;;;;;4948192;29;20855;-83
2023/03/06 02:51:35;;;;;;;16.03;8.27;;;2.60;99.90;;;;;;4956647;29;20571;-84
2023/03/06 02:54:00;;;;;;;13.43;7.27;;;2.60;99.90;;;;;;4959910;28;20239;-83
2023/03/06 02:56:26;;;;;;;23.83;9.67;;;2.60;99.90;;;;;;4946694;29;20291;-83
2023/03/06 02:58:51;;;;;;;14.70;8.40;;;3.10;99.90;;;;;;4947843;29;20244;-84
2023/03/06 03:01:17;;;;;;;22.43;9.47;;;2.60;99.90;;;;;;4958056;28;20207;-84
2023/03/06 03:03:43;;;;;;;15.20;7.73;;;2.70;99.90;;;;;;4964371;29;20181;-83
2023/03/06 03:06:08;;;;;;;25.63;8.03;;;2.60;99.90;;;;;;4939650;29;20193;-84
2023/03/06 03:08:35;;;;;;;21.10;8.87;;;3.20;99.90;;;;;;4943050;29;20197;-83
2023/03/06 03:11:01;;;;;;;19.95;9.40;;;2.50;99.90;;;;;;4965098;29;20227;-83
2023/03/06 03:13:26;;;;;;;15.65;7.70;;;2.60;99.90;;;;;;4964481;28;20200;-83
2023/03/06 03:16:10;;;;;;;19.77;8.20;;;3.20;99.90;;;;;;4947282;29;20180;-83
2023/03/06 03:18:36;;;;;;;19.00;9.00;;;2.50;99.90;;;;;;4955941;29;20255;-83
2023/03/06 03:21:02;;;;;;;12.37;8.20;;;2.90;99.90;;;;;;4957471;29;20288;-83
2023/03/06 03:23:27;;;;;;;14.63;7.95;;;2.60;99.90;;;;;;4952528;29;20173;-83
2023/03/06 03:25:53;;;;;;;22.80;9.73;;;2.50;99.90;;;;;;4963150;29;20179;-83
2023/03/06 03:28:19;;;;;;;15.53;7.30;;;2.50;99.90;;;;;;4946863;29;20260;-83
2023/03/06 03:30:44;;;;;;;18.48;8.27;;;2.50;99.90;;;;;;4962969;29;20180;-83
2023/03/06 03:33:11;;;;;;;16.80;7.40;;;2.60;99.90;;;;;;4961656;29;20219;-83
2023/03/06 03:35:37;;;;;;;16.02;8.43;;;2.50;99.90;;;;;;4965604;28;20168;-84
2023/03/06 03:38:02;;;;;;;15.53;7.73;;;2.50;99.90;;;;;;4947594;28;20713;-83
2023/03/06 03:40:28;;;;;;;14.93;8.50;;;2.70;99.90;;;;;;4964305;29;20185;-84
2023/03/06 03:42:54;;;;;;;20.80;10.40;;;2.90;99.90;;;;;;4964841;29;20585;-82
2023/03/06 03:45:19;;;;;;;19.37;8.80;;;2.60;99.90;;;;;;4961587;29;20173;-84
2023/03/06 03:47:45;;;;;;;16.53;8.50;;;2.60;99.90;;;;;;4943885;29;20292;-84
2023/03/06 03:50:10;;;;;;;17.87;8.50;;;2.70;99.90;;;;;;4939167;29;20176;-83
2023/03/06 03:52:36;;;;;;;23.80;8.13;;;2.50;99.90;;;;;;4942418;29;20195;-84
2023/03/06 03:55:02;;;;;;;19.20;7.97;;;2.50;99.90;;;;;;4939476;29;20190;-82
2023/03/06 03:57:28;;;;;;;17.33;9.05;;;2.50;99.90;;;;;;4955483;28;20729;-83
2023/03/06 03:59:54;;;;;;;13.47;7.80;;;2.50;99.90;;;;;;4942323;29;20195;-83
2023/03/06 04:02:20;;;;;;;21.00;9.67;;;2.80;99.90;;;;;;4954220;29;20236;-83
2023/03/06 04:04:46;;;;;;;22.98;9.30;;;2.60;99.90;;;;;;4958205;29;20435;-83
2023/03/06 04:07:12;;;;;;;16.98;9.50;;;2.50;99.90;;;;;;4961069;29;20168;-82
2023/03/06 04:09:37;;;;;;;19.20;8.40;;;2.40;99.90;;;;;;4957899;29;20216;-83
2023/03/06 04:12:03;;;;;;;26.60;10.33;;;2.60;99.90;;;;;;4944978;29;20185;-83
2023/03/06 04:14:29;;;;;;;21.73;9.30;;;2.50;99.90;;;;;;4948344;29;20185;-83
2023/03/06 04:16:54;;;;;;;16.53;7.60;;;2.40;99.90;;;;;;4945391;29;20527;-83
2023/03/06 04:19:20;;;;;;;14.50;7.47;;;2.80;99.90;;;;;;4953765;28;20207;-82
2023/03/06 04:21:45;;;;;;;16.70;8.10;;;2.40;99.90;;;;;;4956945;28;20232;-83
2023/03/06 04:24:11;;;;;;;18.23;9.00;;;2.70;99.90;;;;;;4940631;29;20174;-82
2023/03/06 04:26:36;;;;;;;14.77;8.60;;;2.30;99.90;;;;;;4957038;28;20260;-82
2023/03/06 04:29:02;;;;;;;19.53;8.57;;;2.30;99.90;;;;;;4942241;28;20215;-84
2023/03/06 04:31:27;;;;;;;28.33;10.70;;;2.40;99.90;;;;;;4955647;29;20189;-83
2023/03/06 04:33:53;;;;;;;21.77;11.00;;;2.40;99.90;;;;;;4953223;28;20762;-82
2023/03/06 04:36:26;;;;;;;26.47;10.20;;;2.30;99.90;;;;;;4950826;28;20199;-83
2023/03/06 04:38:52;;;;;;;18.85;9.95;;;3.20;99.90;;;;;;4947762;28;20240;-83
2023/03/06 04:41:18;;;;;;;24.80;9.97;;;2.30;99.90;;;;;;4936138;29;20223;-83
2023/03/06 04:43:43;;;;;;;21.13;10.50;;;2.30;99.90;;;;;;4933988;29;20176;-83
2023/03/06 04:46:10;;;;;;;19.17;9.70;;;2.30;99.90;;;;;;4952226;29;20236;-83
2023/03/06 04:48:36;;;;;;;24.92;10.82;;;2.30;99.90;;;;;;4956989;29;20223;-82
2023/03/06 04:51:01;;;;;;;27.30;11.17;;;2.30;99.90;;;;;;4945415;29;20205;-81
2023/03/06 04:53:27;;;;;;;26.53;13.00;;;2.40;99.90;;;;;;4954692;28;20197;-83
2023/03/06 04:55:52;;;;;;;20.90;10.17;;;2.30;99.90;;;;;;4957514;28;20222;-83
2023/03/06 04:58:18;;;;;;;29.83;9.30;;;2.30;99.90;;;;;;4963883;29;20224;-82
2023/03/06 05:00:43;;;;;;;22.90;9.30;;;2.30;99.90;;;;;;4944062;29;20211;-83
2023/03/06 05:03:11;;;;;;;22.27;10.20;;;2.30;99.90;;;;;;4949408;29;20212;-83
2023/03/06 05:05:36;;;;;;;21.52;9.95;;;2.30;99.90;;;;;;4934408;28;20193;-83
2023/03/06 05:08:02;;;;;;;21.43;9.67;;;2.40;99.90;;;;;;4959184;29;20216;-82
2023/03/06 05:10:28;;;;;;;21.50;10.53;;;2.30;99.90;;;;;;4952143;28;20176;-82
2023/03/06 05:12:53;;;;;;;24.17;10.87;;;2.30;99.90;;;;;;4953321;29;20284;-83
2023/03/06 05:15:19;;;;;;;22.57;11.00;;;2.30;99.90;;;;;;4953826;28;20622;-84
2023/03/06 05:17:46;;;;;;;21.90;9.30;;;2.40;99.90;;;;;;4940481;29;20200;-83
2023/03/06 05:20:12;;;;;;;30.17;11.48;;;2.90;99.90;;;;;;4938461;29;20184;-83
2023/03/06 05:22:38;;;;;;;25.20;10.20;;;2.40;99.90;;;;;;4939453;29;20193;-84
2023/03/06 05:25:04;;;;;;;21.67;9.87;;;2.40;99.90;;;;;;4949808;29;20192;-84
2023/03/06 05:27:30;;;;;;;20.87;10.27;;;2.40;99.90;;;;;;4943896;28;20204;-85
2023/03/06 05:29:55;;;;;;;22.57;10.80;;;2.30;99.90;;;;;;4944600;28;20440;-86
2023/03/06 05:32:21;;;;;;;26.63;11.53;;;2.40;99.90;;;;;;4931895;29;20180;-86
2023/03/06 05:34:48;;;;;;;21.27;10.10;;;2.40;99.90;;;;;;4933927;29;20621;-85
2023/03/06 05:37:13;;;;;;;18.38;9.95;;;2.40;99.90;;;;;;4946049;28;20530;-86
2023/03/06 05:39:39;;;;;;;38.97;10.83;;;;;;;;;;4929358;29;20263;-86
2023/03/06 05:42:05;;;;;;;25.97;10.80;;;2.40;99.90;;;;;;4945933;28;20215;-85
2023/03/06 05:44:32;;;;;;;24.10;10.30;;;2.40;99.90;;;;;;4943410;28;20606;-84
2023/03/06 05:46:57;;;;;;;18.40;9.95;;;2.40;99.90;;;;;;4945193;28;20575;-85
2023/03/06 05:49:23;;;;;;;24.67;10.83;;;2.40;99.90;;;;;;4932961;29;20196;-85
2023/03/06 05:51:49;;;;;;;21.53;9.33;;;;;;;;;;4946371;28;20358;-85
2023/03/06 05:54:14;;;;;;;15.80;7.00;;;2.50;99.90;;;;;;4945222;28;20196;-85
2023/03/06 05:56:40;;;;;;;17.27;8.83;;;2.50;99.90;;;;;;4948017;29;20424;-86
2023/03/06 05:59:06;;;;;;;21.60;10.00;;;;;;;;;;4939608;29;20620;-83
2023/03/06 06:01:31;;;;;;;18.67;10.37;;;2.60;99.90;;;;;;4946409;28;20467;-82
2023/03/06 06:03:57;;;;;;;23.67;10.20;;;2.60;99.90;;;;;;4952509;28;20437;-83
2023/03/06 06:06:22;;;;;;;22.50;10.77;;;2.60;99.90;;;;;;4952795;28;20196;-82
2023/03/06 06:08:48;;;;;;;23.63;11.37;;;2.60;99.90;;;;;;4952618;28;20209;-83
2023/03/06 06:11:14;;;;;;;19.53;11.63;;;2.60;99.90;;;;;;4952713;29;20184;-82
2023/03/06 06:13:41;;;;;;;20.23;9.80;;;2.60;99.90;;;;;;4952814;29;20331;-82
2023/03/06 06:16:14;;;;;;;21.48;10.05;;;2.60;99.90;;;;;;4951227;29;20231;-82
2023/03/06 06:18:39;;;;;;;18.15;10.05;;;2.60;99.90;;;;;;4949022;29;20235;-82
2023/03/06 06:21:10;;;;;;;18.20;9.30;;;2.50;99.90;;;;;;4949689;28;20188;-82
2023/03/06 06:23:36;;;;;;;21.13;9.15;;;2.60;99.90;;;;;;4951972;28;20177;-82
2023/03/06 06:26:04;;;;;;;17.07;9.73;;;2.60;99.90;;;;;;4949211;28;20253;-82
2023/03/06 06:28:30;;;;;;;20.15;8.68;;;2.60;99.90;;;;;;4950834;29;20270;-82
2023/03/06 06:30:56;;;;;;;18.98;8.82;;;2.60;99.90;;;;;;4952072;28;20181;-82
2023/03/06 06:33:22;;;;;;;21.03;9.63;;;2.50;99.90;;;;;;4952448;28;20195;-83
2023/03/06 06:35:47;;;;;;;23.00;10.25;;;2.60;99.90;;;;;;4948092;28;20627;-83
2023/03/06 06:38:14;;;;;;;20.47;10.00;;;2.50;99.90;;;;;;4950229;28;20240;-82
2023/03/06 06:40:40;;;;;;;21.65;9.80;;;2.60;99.90;;;;;;4933782;29;20192;-82
2023/03/06 06:43:05;;;;;;;25.20;10.87;;;2.60;99.90;;;;;;4952314;28;20196;-82
2023/03/06 06:45:31;;;;;;;24.33;11.50;;;2.60;99.90;;;;;;4948587;28;20559;-82
2023/03/06 06:47:56;;;;;;;18.90;11.03;;;2.70;99.90;;;;;;4948788;28;20240;-82
2023/03/06 06:50:22;;;;;;;22.43;9.40;;;2.60;99.90;;;;;;4951340;28;20185;-83
2023/03/06 06:52:47;;;;;;;22.17;10.63;;;2.60;99.90;;;;;;4950471;28;20554;-83
2023/03/06 06:55:13;;;;;;;26.33;11.23;;;2.70;99.90;;;;;;4951805;28;20680;-82
2023/03/06 06:57:40;;;;;;;19.93;9.33;;;2.80;99.90;;;;;;4941718;29;20768;-83
2023/03/06 07:00:06;;;;;;;16.40;8.60;;;2.70;99.90;;;;;;4950943;28;20452;-82
2023/03/06 07:02:32;;;;;;;18.98;9.55;;;2.70;99.90;;;;;;4952137;28;20224;-82
2023/03/06 07:04:57;;;;;;;14.63;9.70;;;2.70;99.90;;;;;;4936240;29;20189;-83
2023/03/06 07:07:23;;;;;;;22.00;9.43;;;2.70;99.90;;;;;;4953624;29;20269;-82
2023/03/06 07:09:49;;;;;;;22.92;9.10;;;2.70;99.90;;;;;;4944015;28;20185;-81
2023/03/06 07:12:14;;;;;;;24.40;8.63;;;2.80;99.90;;;;;;4949078;28;20265;-83
2023/03/06 07:14:41;;;;;;;20.87;9.80;;;2.70;99.90;;;;;;4949711;28;20189;-83
2023/03/06 07:17:09;;;;;;;18.20;9.10;;;2.80;99.90;;;;;;4948704;28;20222;-83
2023/03/06 07:19:35;;;;;;;24.25;9.90;;;2.80;99.90;;;;;;4945235;29;20191;-82
2023/03/06 07:22:01;;;;;;;21.03;10.00;;;2.80;99.90;;;;;;4947187;29;20592;-82
2023/03/06 07:24:27;;;;;;;16.00;8.37;;;2.80;99.90;;;;;;4950141;29;20174;-82
2023/03/06 07:26:52;;;;;;;23.73;9.30;;;2.80;99.90;;;;;;4948439;29;20548;-82
2023/03/06 07:29:18;;;;;;;15.77;7.90;;;2.80;99.90;;;;;;4945153;29;20228;-81
2023/03/06 07:31:44;;;;;;;17.37;8.80;;;2.80;99.90;;;;;;4952573;28;20423;-82
2023/03/06 07:34:13;;;;;;;21.57;11.30;;;2.80;99.90;;;;;;4948410;28;20195;-82
2023/03/06 07:36:39;;;;;;;19.05;9.88;;;2.90;99.90;;;;;;4949358;28;20177;-83
2023/03/06 07:39:06;;;;;;;23.33;9.68;;;2.90;99.90;;;;;;4944836;28;20208;-82
2023/03/06 07:41:32;;;;;;;27.50;12.05;;;2.90;99.90;;;;;;4948836;28;20308;-82
2023/03/06 07:43:58;;;;;;;25.23;11.93;;;2.90;99.90;;;;;;4949065;28;20613;-82
2023/03/06 07:46:23;;;;;;;25.00;10.13;;;2.90;99.90;;;;;;4941081;29;20521;-82
2023/03/06 07:48:49;;;;;;;21.43;9.97;;;3.00;99.90;;;;;;4945512;28;20482;-83
2023/03/06 07:51:17;;;;;;;21.97;10.00;;;3.00;99.90;;;;;;4947542;29;20661;-82
2023/03/06 07:53:43;;;;;;;23.67;10.93;;;3.00;99.90;;;;;;4948452;28;20185;-82
2023/03/06 07:56:10;;;;;;;24.15;10.48;;;3.10;99.90;;;;;;4946692;28;20184;-81
2023/03/06 07:58:38;;;;;;;18.95;9.88;;;3.10;99.90;;;;;;4945678;28;20213;-82
2023/03/06 08:01:15;;;;;;;21.60;10.32;;;3.10;99.90;;;;;;4937420;29;20272;-83
2023/03/06 08:03:40;;;;;;;21.23;10.27;;;3.00;99.90;;;;;;4943685;28;20185;-82
2023/03/06 08:06:15;;;;;;;19.67;10.07;;;3.00;99.90;;;;;;4944551;28;20189;-83
2023/03/06 08:08:43;;;;;;;27.10;12.05;;;3.00;99.90;;;;;;4945772;29;20278;-82
2023/03/06 08:11:11;;;;;;;18.75;9.32;;;3.10;99.90;;;;;;4946079;28;20260;-82
2023/03/06 08:13:37;;;;;;;20.70;10.45;;;2.90;99.90;;;;;;4945218;28;20227;-83
2023/03/06 08:16:03;;;;;;;24.03;10.80;;;3.00;99.90;;;;;;4942837;28;20216;-82
2023/03/06 08:18:29;;;;;;;22.85;11.35;;;3.00;99.90;;;;;;4945945;28;20212;-82
2023/03/06 08:21:05;;;;;;;20.67;9.63;;;3.00;99.90;;;;;;4943922;28;20185;-82
2023/03/06 08:23:30;;;;;;;22.27;12.07;;;2.90;99.90;;;;;;4941417;28;20630;-82
2023/03/06 08:26:01;;;;;;;30.60;12.23;;;2.90;99.90;;;;;;4946154;29;20188;-82
2023/03/06 08:28:27;;;;;;;18.52;10.13;;;2.90;99.90;;;;;;4949244;28;20205;-82
2023/03/06 08:30:54;;;;;;;22.48;11.77;;;3.10;99.90;;;;;;4949043;28;20236;-82
2023/03/06 08:33:20;;;;;;;24.25;11.70;;;3.10;99.90;;;;;;4931448;29;20189;-82
2023/03/06 08:35:45;;;;;;;24.73;10.90;;;3.20;99.90;;;;;;4946143;29;20185;-82
2023/03/06 08:38:11;;;;;;;28.30;13.93;;;3.20;99.90;;;;;;4929781;29;20204;-82
2023/03/06 08:40:36;;;;;;;23.70;11.33;;;3.20;99.90;;;;;;4946070;29;20203;-82
2023/03/06 08:43:02;;;;;;;20.97;10.50;;;3.20;99.90;;;;;;4946951;28;20740;-83
2023/03/06 08:45:28;;;;;;;51.17;13.98;;;3.20;99.90;;;;;;4946644;29;20204;-83
2023/03/06 08:47:53;;;;;;;24.70;10.70;;;3.10;99.90;;;;;;4944999;29;20246;-83
2023/03/06 08:50:19;;;;;;;27.07;11.77;;;3.10;99.90;;;;;;4950951;28;20185;-84
2023/03/06 08:52:44;;;;;;;20.93;10.03;;;3.10;99.90;;;;;;4948152;28;20188;-81
2023/03/06 08:55:10;;;;;;;30.43;13.90;;;3.10;99.90;;;;;;4949699;29;20224;-82
2023/03/06 08:57:36;;;;;;;26.20;12.27;;;3.20;99.90;;;;;;4937483;29;20216;-82
2023/03/06 09:00:07;;;;;;;23.20;10.83;;;3.20;99.90;;;;;;4948276;29;20663;-81
2023/03/06 09:02:33;;;;;;;28.17;12.18;;;3.10;99.90;;;;;;4950002;28;20236;-81
2023/03/06 09:05:00;;;;;;;24.50;12.30;;;3.20;99.90;;;;;;4929723;29;20276;-81
2023/03/06 09:07:26;;;;;;;29.15;12.52;;;3.30;99.90;;;;;;4937984;29;20536;-82
2023/03/06 09:09:55;;;;;;;26.30;12.45;;;3.40;99.90;;;;;;4935283;29;20283;-81
2023/03/06 09:12:21;;;;;;;21.17;11.95;;;3.30;99.90;;;;;;4945661;29;20211;-84
2023/03/06 09:14:46;;;;;;;22.47;11.80;;;3.30;99.90;;;;;;4946291;28;20197;-81
2023/03/06 09:17:12;;;;;;;22.67;10.03;;;3.60;99.90;;;;;;4942937;29;20259;-82
2023/03/06 09:19:37;;;;;;;19.03;11.30;;;3.70;99.90;;;;;;4946899;29;20291;-81
2023/03/06 09:22:03;;;;;;;21.77;9.97;;;3.40;99.90;;;;;;4946787;28;20348;-81
2023/03/06 09:24:31;;;;;;;18.93;11.17;;;3.40;99.90;;;;;;4945759;29;20275;-82
2023/03/06 09:26:56;;;;;;;26.20;11.85;;;3.40;99.90;;;;;;4931017;29;20189;-81
2023/03/06 09:29:22;;;;;;;26.10;11.77;;;3.40;99.90;;;;;;4926454;29;20594;-81
2023/03/06 09:31:48;;;;;;;22.77;10.80;;;3.40;99.90;;;;;;4944508;28;20192;-81
2023/03/06 09:34:13;;;;;;;25.80;11.97;;;3.40;99.90;;;;;;4945121;28;20813;-81
2023/03/06 09:36:40;;;;;;;23.80;11.20;;;3.50;99.90;;;;;;4946955;28;20210;-83
2023/03/06 09:39:06;;;;;;;22.80;11.02;;;3.50;99.90;;;;;;4948088;29;20208;-84
2023/03/06 09:41:36;;;;;;;22.77;10.90;;;3.60;99.90;;;;;;4947789;28;20204;-83
2023/03/06 09:44:16;;;;;;;18.42;10.40;;;3.60;99.90;;;;;;4947159;28;20692;-83
2023/03/06 09:47:00;;;;;;;18.52;10.20;;;3.60;99.90;;;;;;4945695;29;20390;-83
2023/03/06 09:49:38;;;;;;;20.10;9.80;;;3.70;99.90;;;;;;4939574;29;20200;-83
2023/03/06 09:52:30;;;;;;;19.77;10.35;;;3.50;99.90;;;;;;4944701;28;20665;-84
2023/03/06 09:55:11;;;;;;;25.42;10.88;;;3.50;99.90;;;;;;4926340;29;20176;-83
2023/03/06 09:58:00;;;;;;;17.95;9.40;;;3.60;99.90;;;;;;4942803;29;20217;-83
2023/03/06 10:00:36;;;;;;;20.50;10.55;;;3.60;99.90;;;;;;4941590;29;20185;-83
2023/03/06 10:03:21;;;;;;;22.35;10.73;;;3.60;99.90;;;;;;4943928;29;20220;-84
2023/03/06 10:05:52;;;;;;;23.90;11.52;;;3.80;99.90;;;;;;4942653;29;20188;-83
2023/03/06 10:08:26;;;;;;;24.77;11.90;;;3.90;99.90;;;;;;4942341;28;20201;-83
2023/03/06 10:11:06;;;;;;;21.20;10.82;;;4.10;99.90;;;;;;4940749;28;20216;-83
2023/03/06 10:13:38;;;;;;;24.50;11.45;;;4.20;99.90;;;;;;4939337;29;20227;-83
2023/03/06 10:16:20;;;;;;;24.75;11.90;;;4.50;99.90;;;;;;4944371;29;20184;-83
2023/03/06 10:18:46;;;;;;;19.33;11.45;;;4.60;99.90;;;;;;4946740;28;20204;-83
2023/03/06 10:21:37;;;;;;;25.67;13.10;;;4.60;99.90;;;;;;4944720;28;20404;-84
2023/03/06 10:24:30;;;;;;;22.55;11.00;;;4.70;99.90;;;;;;4918250;28;20697;-83
2023/03/06 10:27:27;;;;;;;20.38;9.75;;;4.70;99.90;;;;;;4944971;28;20205;-82
2023/03/06 10:30:17;;;;;;;19.17;9.80;;;4.50;99.90;;;;;;4950496;28;20230;-83
2023/03/06 10:33:16;;;;;;;19.95;11.18;;;4.50;99.90;;;;;;4946453;28;20264;-83
2023/03/06 10:35:52;;;;;;;20.17;11.00;;;4.70;99.90;;;;;;4922996;29;20196;-84
2023/03/06 10:38:26;;;;;;;20.95;9.90;;;4.90;99.90;;;;;;4943941;29;20204;-83
2023/03/06 10:41:10;;;;;;;20.88;10.98;;;5.20;99.90;;;;;;4934338;29;20761;-83
2023/03/06 10:43:37;;;;;;;20.25;10.38;;;5.10;99.90;;;;;;4943622;28;20189;-83
2023/03/06 10:46:05;;;;;;;20.10;10.25;;;5.10;99.90;;;;;;4949156;28;20185;-84
2023/03/06 10:48:34;;;;;;;25.00;12.18;;;4.80;99.90;;;;;;4953474;29;20272;-83
2023/03/06 10:51:24;;;;;;;17.17;10.10;;;4.70;99.90;;;;;;4932770;29;20181;-84
2023/03/06 10:53:56;;;;;;;21.70;12.10;;;4.90;99.90;;;;;;4945763;28;20204;-84
2023/03/06 10:56:28;;;;;;;18.45;11.10;;;5.30;99.90;;;;;;4953588;29;20173;-84
2023/03/06 10:59:15;;;;;;;21.15;11.00;;;5.20;99.90;;;;;;4952069;29;20232;-84
2023/03/06 11:01:46;;;;;;;21.25;10.32;;;5.20;99.90;;;;;;4953819;28;20220;-84
2023/03/06 11:04:26;;;;;;;21.58;11.13;;;5.00;99.90;;;;;;4952495;28;20210;-83
2023/03/06 11:07:16;;;;;;;18.50;10.93;;;5.00;99.90;;;;;;4941914;29;20191;-84
2023/03/06 11:09:57;;;;;;;16.13;8.50;;;4.90;99.90;;;;;;4947787;28;20241;-83
2023/03/06 11:12:33;;;;;;;18.95;10.90;;;6.10;99.90;;;;;;4954657;28;20193;-84
2023/03/06 11:15:19;;;;;;;18.90;10.93;;;4.90;99.90;;;;;;4951504;28;20278;-84
2023/03/06 11:18:22;;;;;;;21.73;11.00;;;5.10;99.90;;;;;;4977046;23;20683;-82
2023/03/06 11:20:51;;;;;;;21.10;10.02;;;5.10;99.90;;;;;;4966594;28;20208;-80
2023/03/06 11:23:43;;;;;;;22.48;11.98;;;5.30;99.90;;;;;;4976328;28;20245;-81
2023/03/06 11:26:14;;;;;;;26.95;11.57;;;5.70;99.90;;;;;;4957209;28;20652;-80
2023/03/06 11:29:07;;;;;;;21.50;11.95;;;6.20;99.90;;;;;;4968949;28;20594;-84
2023/03/06 11:31:41;;;;;;;20.77;11.10;;;6.20;99.90;;;;;;4932743;28;20184;-80
2023/03/06 11:34:18;;;;;;;19.95;10.35;;;5.80;99.90;;;;;;4962016;28;20785;-82
2023/03/06 11:36:52;;;;;;;21.42;11.35;;;5.70;99.90;;;;;;4962484;28;20183;-85
2023/03/06 11:39:34;;;;;;;16.48;9.20;;;5.90;99.90;;;;;;4934953;28;20824;-82
2023/03/06 11:42:22;;;;;;;21.38;12.25;;;5.90;99.90;;;;;;4963518;28;20317;-84
2023/03/06 11:44:54;;;;;;;18.67;10.70;;;5.80;99.90;;;;;;4949061;28;20615;-82
2023/03/06 11:47:30;;;;;;;22.42;10.55;;;5.90;99.90;;;;;;4962003;28;20184;-82
2023/03/06 11:50:15;;;;;;;22.98;11.05;;;6.00;99.90;;;;;;4936811;28;20290;-83
2023/03/06 11:52:53;;;;;;;22.27;11.85;;;6.00;99.90;;;;;;4941692;28;21682;-82
2023/03/06 11:55:51;;;;;;;17.65;8.95;;;5.80;99.90;;;;;;4951867;28;20222;-82
2023/03/06 11:58:46;;;;;;;18.33;9.55;;;5.70;99.90;;;;;;4954243;28;20230;-81
2023/03/06 12:01:28;;;;;;;16.77;7.68;;;5.60;99.90;;;;;;4945640;28;20176;-82
2023/03/06 12:04:24;;;;;;;18.58;9.50;;;5.30;99.90;;;;;;4975192;28;20184;-82
2023/03/06 12:07:08;;;;;;;20.75;10.38;;;5.20;99.90;;;;;;4941372;28;20657;-84
2023/03/06 12:10:04;;;;;;;24.75;11.48;;;5.30;99.90;;;;;;4970886;28;20211;-81
2023/03/06 12:12:39;;;;;;;17.30;9.27;;;5.70;99.90;;;;;;4969915;28;20209;-80
2023/03/06 12:15:26;;;;;;;19.05;10.60;;;5.50;99.90;;;;;;4996274;28;20203;-81
2023/03/06 12:17:57;;;;;;;18.65;8.98;;;5.70;99.90;;;;;;4988730;28;20327;-81
2023/03/06 12:20:42;;;;;;;18.20;8.45;;;5.70;99.90;;;;;;4965711;28;20656;-82
2023/03/06 12:23:49;;;;;;;20.55;9.07;;;5.90;99.90;;;;;;4949362;28;20226;-84
2023/03/06 12:26:46;;;;;;;12.73;8.18;;;5.70;99.90;;;;;;4964605;28;20191;-79
2023/03/06 12:29:37;;;;;;;14.88;9.07;;;5.70;99.90;;;;;;4934826;28;20211;-83
2023/03/06 12:32:20;;;;;;;17.67;9.77;;;5.70;99.90;;;;;;4944327;28;20700;-83
2023/03/06 12:35:02;;;;;;;17.15;8.80;;;5.90;99.90;;;;;;4972123;28;20188;-83
2023/03/06 12:37:49;;;;;;;20.35;9.07;;;5.80;99.90;;;;;;4966453;28;20186;-84
2023/03/06 12:40:37;;;;;;;22.02;9.82;;;6.00;99.90;;;;;;4975479;28;20298;-81
2023/03/06 12:43:24;;;;;;;15.90;9.80;;;5.70;99.90;;;;;;4952596;28;22325;-83
2023/03/06 12:46:17;;;;;;;18.58;10.13;;;5.60;99.90;;;;;;4969850;28;20211;-81
2023/03/06 12:48:47;;;;;;;12.13;5.72;;;5.50;99.90;;;;;;4941488;28;20184;-82
2023/03/06 12:51:16;;;;;;;14.13;7.93;;;5.50;99.90;;;;;;4946589;28;20184;-83
2023/03/06 12:53:44;;;;;;;20.73;11.05;;;5.40;99.90;;;;;;4963976;28;20272;-86
2023/03/06 12:56:14;;;;;;;28.00;11.27;;;5.30;99.90;;;;;;4942245;28;20207;-84
2023/03/06 12:58:49;;;;;;;16.67;7.82;;;5.30;99.90;;;;;;4938657;28;20184;-82